Overview Statistics Trail Chart Weather Telemetry Raw packets
 

This is the latest recevied weather packets stored in our database for station/object W1RCP. If no packets are shown the sender has not sent any weather packets the latest 10 day(s).

<< 110 111 112 113 114 >>
Time Temp. Humidity Pressure Rain* Wind** Luminosity Snow
1787779182 28.89° C 78% 1026.1 hPa 0 mm - 343 W/m² -
1787778877 28.89° C 77% 1026.1 hPa 0 mm - 328 W/m² -
1787778573 28.33° C 77% 1026.3 hPa 0 mm - 345 W/m² -
1787778269 27.78° C 81% 1026.5 hPa 0 mm - 372 W/m² -
1787777968 27.78° C 84% 1026.6 hPa 0 mm - 388 W/m² -
1787777667 27.22° C 83% 1026.7 hPa 0 mm - 481 W/m² -
1787777362 26.11° C 86% 1026.9 hPa 0 mm - 509 W/m² -
1787777064 25.56° C 90% 1026.9 hPa 0 mm - 408 W/m² -
1787776758 25° C 91% 1027 hPa 0 mm - 612 W/m² -
1787776457 24.44° C 93% 1027.1 hPa 0 mm - 379 W/m² -
1787776155 24.44° C 92% 1027.2 hPa 1.78 mm - 248 W/m² -
1787775855 25° C 92% 1026.9 hPa 1.78 mm - 211 W/m² -
1787775550 24.44° C 93% 1026.9 hPa 0 mm - 193 W/m² -
1787775250 24.44° C 92% 1026.9 hPa 0 mm - 156 W/m² -
1787774948 24.44° C 93% 1027.1 hPa 1.27 mm - 121 W/m² -
1787774648 24.44° C 92% 1027.3 hPa 1.78 mm - 93 W/m² -
1787774346 24.44° C 90% 1027.2 hPa 1.78 mm - 82 W/m² -
1787774042 25° C 90% 1027.3 hPa 3.05 mm - 73 W/m² -
1787773740 25° C 86% 1027.6 hPa 3.05 mm - 61 W/m² -
1787773435 25° C 85% 1027.5 hPa 4.83 mm - 54 W/m² -
1787773130 25° C 89% 1027.5 hPa 6.1 mm - 45 W/m² -
1787772827 25.56° C 86% 1027.5 hPa 3.05 mm - 62 W/m² -
1787772525 27.22° C 81% 1027.3 hPa 0 mm - 57 W/m² -
1787772224 27.78° C 79% 1027.1 hPa 0 mm - 16 W/m² -
1787771924 28.89° C 75% 1026.9 hPa 0 mm - 16 W/m² -

* Rain latest hour (hover to see other rain measurements)
** Current wind speed in m/s (hover to see current wind gust speed)